Home > Products > Valid Products > TAF

000
FTUS44 KAMA 282300
TAFGUY
TAF
KGUY 282320Z 2900/2924 25010KT P6SM FEW250=



000
FTUS44 KAMA 282300
TAFAMA
TAF
KAMA 282320Z 2900/2924 24015KT P6SM FEW250=



000
FTUS44 KAMA 282300
TAFDHT
TAF
KDHT 282320Z 2900/2924 24014KT P6SM FEW250=



000
FTUS44 KAMA 282100 AAA
TAFAMA
TAF AMD
KAMA 282103Z 2821/2918 25018G25KT P6SM SCT250
     FM290000 23014KT P6SM SCT250=



000
FTUS44 KAMA 282100 AAA
TAFDHT
TAF AMD
KDHT 282103Z 2821/2918 24018G25KT P6SM SCT250
     FM290000 24014KT P6SM SCT250=



000
FTUS44 KAMA 281700
TAFGUY
TAF
KGUY 281720Z 2818/2918 23010KT P6SM SCT250=



000
FTUS44 KAMA 281700
TAFDHT
TAF
KDHT 281720Z 2818/2918 24014KT P6SM SCT250=



000
FTUS44 KAMA 281700
TAFAMA
TAF
KAMA 281720Z 2818/2918 23015KT P6SM SCT250=



000
FTUS44 KAMA 281100
TAFAMA
TAF
KAMA 281120Z 2812/2912 23015KT P6SM SCT250=



000
FTUS44 KAMA 281100
TAFDHT
TAF
KDHT 281120Z 2812/2912 25007KT P6SM SCT250
     FM281600 25014KT P6SM SCT250=



000
FTUS44 KAMA 281100
TAFGUY
TAF
KGUY 281120Z 2812/2912 23009KT P6SM SCT250=



000
FTUS44 KAMA 280500
TAFDHT
TAF
KDHT 280520Z 2806/2906 22010KT P6SM SCT250
     FM281500 25015KT P6SM SCT250=



000
FTUS44 KAMA 280500
TAFAMA
TAF
KAMA 280520Z 2806/2906 20013KT P6SM SCT250
     FM281500 23017KT P6SM SCT250=



000
FTUS44 KAMA 280500
TAFGUY
TAF
KGUY 280520Z 2806/2906 20010KT P6SM SCT250
     FM281600 23012KT P6SM SCT250=



000
FTUS44 KAMA 272300
TAFDHT
TAF
KDHT 272320Z 2800/2824 24010KT P6SM SCT250
     FM281500 26015KT P6SM SCT250=



000
FTUS44 KAMA 272300
TAFAMA
TAF
KAMA 272320Z 2800/2824 20012KT P6SM SCT250
     FM281400 24014KT P6SM SCT250=



000
FTUS44 KAMA 272300
TAFGUY
TAF
KGUY 272320Z 2800/2824 21011KT P6SM SCT250
     FM281600 26014KT P6SM SCT250=



000
FTUS44 KAMA 271700
TAFGUY
TAF
KGUY 271720Z 2718/2818 20015KT P6SM SCT250
     FM272300 23010KT P6SM FEW250=



000
FTUS44 KAMA 271700
TAFAMA
TAF
KAMA 271720Z 2718/2818 21018G26KT P6SM FEW250
     FM280000 21012KT P6SM FEW250=



000
FTUS44 KAMA 271700
TAFDHT
TAF
KDHT 271720Z 2718/2818 21015G23KT P6SM FEW250
     FM272300 24010KT P6SM FEW250=



000
FTUS44 KAMA 271100
TAFGUY
TAF
KGUY 271120Z 2712/2812 21010KT P6SM FEW250
     FM271600 21016G24KT P6SM FEW250
     FM272300 20011KT P6SM FEW250=



000
FTUS44 KAMA 271100
TAFDHT
TAF
KDHT 271120Z 2712/2812 21010KT P6SM SKC
     FM271600 21016G24KT P6SM FEW250
     FM272300 21010KT P6SM FEW250=



000
FTUS44 KAMA 271100
TAFAMA
TAF
KAMA 271120Z 2712/2812 17012KT P6SM SKC
     FM271400 20016KT P6SM SKC
     FM271600 21019G28KT P6SM FEW250
     FM280000 19013KT P6SM FEW250=



000
FTUS44 KAMA 270500
TAFDHT
TAF
KDHT 270520Z 2706/2806 15004KT P6SM FEW250
     FM271600 21015G22KT P6SM FEW250
     FM272300 20010KT P6SM FEW250=



000
FTUS44 KAMA 270500
TAFGUY
TAF
KGUY 270520Z 2706/2806 13005KT P6SM FEW250
     FM271600 21015G22KT P6SM FEW250
     FM280000 20010KT P6SM FEW250=



000
FTUS44 KAMA 270500
TAFAMA
TAF
KAMA 270520Z 2706/2806 13005KT P6SM FEW250
     FM271500 21016G26KT P6SM FEW250
     FM280000 20011KT P6SM FEW250=



000
FTUS44 KAMA 262300
TAFGUY
TAF
KGUY 262335Z 2700/2724 05005KT P6SM FEW250
     FM271600 20015G22KT P6SM FEW250=



000
FTUS44 KAMA 262300
TAFDHT
TAF
KDHT 262335Z 2700/2724 02004KT P6SM FEW250
     FM271600 20015G22KT P6SM FEW250=



000
FTUS44 KAMA 262300
TAFAMA
TAF
KAMA 262335Z 2700/2724 04005KT P6SM FEW250
     FM271500 20016G26KT P6SM FEW250=



000
FTUS44 KAMA 261700
TAFGUY
TAF
KGUY 261733Z 2618/2718 36015KT P6SM FEW250
     FM270000 19006KT P6SM SKC=



000
FTUS44 KAMA 261700
TAFAMA
TAF
KAMA 261733Z 2618/2718 01008KT P6SM FEW250
     FM270100 18007KT P6SM SKC=



000
FTUS44 KAMA 261700
TAFDHT
TAF
KDHT 261733Z 2618/2718 02008KT P6SM FEW250
     FM270100 19006KT P6SM SKC=



000
FTUS44 KAMA 261100
TAFAMA
TAF
KAMA 261120Z 2612/2712 35018KT P6SM FEW300
     FM270200 19007KT P6SM SKC=



000
FTUS44 KAMA 261100
TAFDHT
TAF
KDHT 261120Z 2612/2712 36015KT P6SM FEW300
     FM270300 21006KT P6SM SKC=



000
FTUS44 KAMA 261100
TAFGUY
TAF
KGUY 261120Z 2612/2712 33017KT P6SM FEW300
     FM270300 19005KT P6SM SKC=



000
FTUS44 KAMA 260900 AAA
TAFAMA
TAF AMD
KAMA 260957Z 2610/2706 34015KT P6SM FEW300
     FM270200 18007KT P6SM SKC=



000
FTUS44 KAMA 260900 AAA
TAFAMA
TAF AMD
KAMA 260957Z 2610/2706 34015KT P6SM FEW300
     FM270200 18007KT P6SM SKC=



000
FTUS44 KAMA 260900 AAA
TAFDHT
TAF AMD
KDHT 260932Z 2610/2706 01015KT P6SM FEW300
     FM270300 17006KT P6SM SKC=



000
FTUS44 KAMA 260700 AAA
TAFGUY
TAF AMD
KGUY 260753Z 2608/2706 35013KT P6SM FEW300
     FM270400 16005KT P6SM SKC=



000
FTUS44 KAMA 260500
TAFDHT
TAF
KDHT 260532Z 2606/2706 28011KT P6SM SKC
     FM261000 34011KT P6SM FEW300
     FM270300 17006KT P6SM SKC=



000
FTUS44 KAMA 260500
TAFAMA
TAF
KAMA 260532Z 2606/2706 28011KT P6SM SKC
     FM261200 34011KT P6SM FEW300
     FM270200 18007KT P6SM SKC=



000
FTUS44 KAMA 260500
TAFGUY
TAF
KGUY 260532Z 2606/2706 28011KT P6SM FEW300
     FM261000 34011KT P6SM FEW300
     FM270400 16005KT P6SM SKC=



    US Dept of Commerce
    National Oceanic and Atmospheric Administration
    National Weather Service
    1325 East West Highway
    Silver Spring, MD 20910
    Page Author: NWS Internet Services Team
Disclaimer
Information Quality
Credits
Glossary
Privacy Policy
Freedom of Information Act (FOIA)
About Us
Career Opportunities